Weather at Newark Liberty International Airport

Public forecast

Using degrees Fahrenheit for public forecast. Weather courtesy of forecast.io.

Current aviation weather report (METAR) for Newark Liberty International Airport

Retrieved 2020/10/23 07:24 UTC (17 minutes ago):

KEWR 230724Z 00000KT 3/4SM R04R/2400VP6000FT BR VV002 17/17 A3018 RMK AO2 T01720172

Aviation forecast (TAF) for Newark Liberty International Airport

Retrieved 2020/10/23 06:42 UTC (59 minutes ago):

TAF KEWR 230540Z 2306/2412 16004KT 4SM BR SCT002 OVC004 TEMPO 2308/2311 2SM BR BKN002 OVC006 FM231300 14005KT 4SM BR OVC008 FM231600 13004KT 5SM BR SCT008 OVC012 FM231800 13006KT P6SM BKN015 FM231900 13007KT P6SM SCT015 BKN025 FM240100 16004KT 6SM BR OVC015